EPKT

Details ICAO EPKT (KTW)
Name PYRZOWICE
Region Poland
Timezone Europe/Warsaw (UTC+1.0)
Plans Departing 439
Arriving 272
Stats Elevation 995 ft / 303 m (AMSL)
Location 50.474263° 19.074356°
Runways 1
Magnetic Variation 5.084° E
Sunrise 2017-12-13 06:37:35 UTC / 2017-12-13 07:37:35 Local
Sunset 2017-12-13 14:41:01 UTC / 2017-12-13 15:41:01 Local
Advertisement - Login to hide

Runways

ID Width Length Bearing (true) Bearing (mag) Surface Threshold Offset Overrun Length
09 195 ft / 59 m 9,156 ft / 2,791 m 90.18° 85.10° Concrete 0 ft / 0 m 0 ft / 0 m
27 195 ft / 59 m 9,156 ft / 2,791 m 270.22° 265.14° Concrete 0 ft / 0 m 0 ft / 0 m

Approach Navaids

Runway Type Ident Frequency Range Bearing (true) Bearing (mag) Slope Elevation
27 Localiser KAT 109.90 MHz 18 nm / 33 km 270.18° 265.09° - 995 ft / 303 m (AMSL)
27 Glidescope KAT 109.90 MHz 10 nm / 19 km 270.20° 265.12° 3.20° 995 ft / 303 m (AMSL)

Map

Weather


0- 5 10 15 20 25 30 35+ Temperature / ° C

Clouds and Precipitation
Forecast for 2017-12-13 06:00 UTC. Updated an hour ago

Ground ~20,000 ft ~40,000 ft Winds

METAR

EPKT 130400Z 26006KT CAVOK M00/M04 Q1015

TAF

TAF EPKT 122330Z 1300/1324 25010KT 9999 BKN030 PROB30 TEMPO 1300/1306 VRB02KT BKN014 BECMG 1309/1312 18010KT

Frequencies

Ground 131.45 MHz HANDLING
Approach 121.07 MHz APP
Tower 129.25 MHz TWR
Warning: Do not use this data for real-world aviation or navigation. No guarantee of current accuracy is given.